Home   Weather   Germany   Zerbst/Anhalt   Past weeks
Flag for Germany

Past Weather in Zerbst/Anhalt, Saxony-Anhalt, Germany — Yesterday and Last 2 Weeks

Currently: 68 °F. Sunny. (Weather station: Leipzig-Schkeuditz, Germany). See more current weather

Past Weather in Zerbst/Anhalt — Graph

°F

Zerbst/Anhalt Temperature Yesterday

Maximum temperature yesterday: 81 °F (at 4:50 pm)
Minimum temperature yesterday: 55 °F (at 4:20 am)
Average temperature yesterday: 68 °F

High & Low Weather Summary for the Past Weeks

 TemperatureHumidityPressure
High86 °F (Jul 24, 2:50 pm)100% (Jul 16, 7:20 am)30.21 "Hg (Jul 16, 7:20 am)
Low52 °F (Jul 21, 5:20 am)35% (Jul 24, 2:50 pm)29.71 "Hg (Jul 30, 6:50 pm)
Average69 °F68%29.99 "Hg
* Reported Jul 16 7:20 am — Jul 31 7:50 am, Zerbst/Anhalt. Weather by CustomWeather, © 2021

Note: Actual official high and low records may vary slightly from our data, if they occured in-between our weather recording intervals... More about our weather records

Zerbst/Anhalt Weather History for the Previous 24 Hours

Scroll right to see more
 ConditionsComfort  
Time TempWeatherWind HumidityBarometerVisibility
7:50 am
Sat, Jul 31
66 °FSunny.9 mph64%29.77 "Hg10 mi
7:20 am64 °FSunny.9 mph73%29.77 "Hg10 mi
6:50 am64 °FSunny.9 mph68%29.77 "Hg10 mi
6:20 am63 °FPassing clouds.8 mph73%29.74 "HgN/A
5:50 am59 °FSunny.9 mph82%29.74 "Hg10 mi
5:20 am61 °FClear.12 mph77%29.74 "Hg10 mi
4:50 am63 °FClear.13 mph77%29.74 "Hg10 mi
4:20 am63 °FClear.10 mph77%29.74 "Hg10 mi
3:50 am64 °FClear.10 mph73%29.74 "Hg10 mi
3:20 am64 °FClear.8 mph73%29.74 "Hg10 mi
2:50 am66 °FClear.9 mph68%29.74 "Hg10 mi
2:20 am68 °FClear.12 mph64%29.71 "Hg10 mi
1:50 am66 °FClear.10 mph68%29.71 "Hg10 mi
1:20 am66 °FClear.7 mph68%29.71 "Hg10 mi
12:50 am66 °FPassing clouds.7 mph68%29.71 "HgN/A
12:20 am68 °FPassing clouds.5 mph64%29.71 "HgN/A
11:50 pm
Fri, Jul 30
68 °FClear.7 mph64%29.71 "Hg10 mi
11:20 pm68 °FClear.9 mph64%29.71 "Hg10 mi
10:50 pm70 °FClear.6 mph57%29.71 "Hg10 mi
10:20 pm72 °FClear.5 mph53%29.71 "Hg10 mi
9:50 pm72 °FClear.5 mph53%29.71 "Hg10 mi
9:20 pm73 °FPassing clouds.5 mph53%29.71 "HgN/A
8:50 pm73 °FPassing clouds.7 mph53%29.71 "HgN/A
8:20 pm77 °FSunny.7 mph51%29.71 "Hg10 mi
7:50 pm79 °FPassing clouds.8 mph42%29.71 "HgN/A
7:20 pm81 °FPassing clouds.10 mph39%29.71 "HgN/A
6:50 pm81 °FSunny.10 mph39%29.71 "Hg10 mi
6:20 pm81 °FPassing clouds.10 mph39%29.74 "HgN/A
5:50 pm81 °FPassing clouds.10 mph39%29.74 "HgN/A
5:20 pm81 °FSunny.12 mph39%29.74 "Hg10 mi
4:50 pm81 °FSunny.13 mph39%29.74 "Hg10 mi
4:20 pm79 °FPassing clouds.12 mph39%29.77 "HgN/A
3:50 pm79 °FPassing clouds.13 mph39%29.77 "HgN/A
3:20 pm79 °FPassing clouds.14 mph39%29.77 "HgN/A
2:20 pm77 °FPassing clouds.12 mph42%29.80 "HgN/A
1:20 pm75 °FPassing clouds.13 mph44%29.83 "HgN/A
11:50 am73 °FPassing clouds.14 mph44%29.86 "HgN/A
10:20 am72 °FPassing clouds.10 mph50%29.86 "HgN/A
9:50 am70 °FSunny.10 mph53%29.86 "Hg10 mi
9:20 am68 °FPassing clouds.9 mph56%29.86 "HgN/A
Weather by CustomWeather, © 2021

See weather overview